Time;durP1;ratioP1;P1;durP2;ratioP2;P2;SDS_P1;SDS_P2;PMS_P1;PMS_P2;Temp;Humidity;BMP_temperature;BMP_pressure;BME280_temperature;BME280_humidity;BME280_pressure;Samples;Min_cycle;Max_cycle;Signal;HPM_P1;HPM_P2
2022/09/27 00:21:53;1440578.00;4.80;2531.80;0.00;0.00;0.62;;;;;14.40;1.00;;;;;;850817;40;3446;-88
2022/09/27 00:51:57;2101779.00;7.01;3835.45;136096.00;0.45;235.84;;;;;14.80;1.00;;;;;;2517870;55;3604;31
2022/09/27 01:06:54;1337078.00;4.46;2340.12;0.00;0.00;0.62;;;;;15.70;1.00;;;;;;2523587;40;3412;31
2022/09/27 01:09:23;2302350.00;7.67;4264.76;212268.00;0.71;367.04;;;;;15.50;1.00;;;;;;2522279;55;3665;31
2022/09/27 01:24:47;1597676.00;5.33;2828.30;21458.00;0.07;37.79;;;;;14.90;1.00;;;;;;2528336;55;3573;31
2022/09/27 07:51:35;1806856.00;6.02;3234.99;0.00;0.00;0.62;;;;;15.00;1.00;;;;;;2278131;61;1370;-87
2022/09/27 07:59:01;2297747.00;7.66;4254.70;1212.00;0.00;2.72;;;;;15.00;1.00;;;;;;2328889;40;3529;31
2022/09/27 08:04:19;1916730.00;6.39;3454.72;0.00;0.00;0.62;;;;;15.00;1.00;;;;;;2281978;61;1561;-84
2022/09/27 08:19:13;2023803.00;6.75;3673.31;0.00;0.00;0.62;;;;;16.40;1.00;;;;;;2282166;60;1133;-87
2022/09/27 08:24:10;1401752.00;4.67;2459.57;0.00;0.00;0.62;;;;;16.10;1.00;;;;;;2281944;60;1411;-88
2022/09/27 08:26:37;664728.00;2.22;1146.13;0.00;0.00;0.62;;;;;16.10;1.00;;;;;;2280373;60;1077;-88
2022/09/27 08:29:04;1094339.00;3.65;1900.30;0.00;0.00;0.62;;;;;16.20;1.00;;;;;;2280311;60;937;-86
2022/09/27 08:31:31;965604.00;3.22;1671.65;0.00;0.00;0.62;;;;;15.80;1.00;;;;;;2293522;39;3578;-86
2022/09/27 08:33:58;648034.00;2.16;1117.23;0.00;0.00;0.62;;;;;15.80;1.00;;;;;;2284632;60;1992;-86
2022/09/27 08:36:27;642085.00;2.14;1106.94;0.00;0.00;0.62;;;;;15.80;1.00;;;;;;2284684;60;974;-87
2022/09/27 08:38:57;601372.00;2.00;1036.59;0.00;0.00;0.62;;;;;16.40;1.00;;;;;;2284658;60;1088;-87
2022/09/27 08:44:05;1431244.00;4.77;2514.40;0.00;0.00;0.62;;;;;16.70;1.00;;;;;;2282161;60;1402;-87
2022/09/27 08:46:43;564459.00;1.88;972.89;0.00;0.00;0.62;;;;;16.80;1.00;;;;;;2280535;60;1096;-87
2022/09/27 08:49:17;597821.00;1.99;1030.46;0.00;0.00;0.62;;;;;17.20;1.00;;;;;;2283984;55;3752;-87
2022/09/27 08:51:51;465035.00;1.55;801.65;0.00;0.00;0.62;;;;;17.30;1.00;;;;;;2288738;60;1151;-86
2022/09/27 08:54:23;913777.00;3.05;1580.33;0.00;0.00;0.62;;;;;17.20;1.00;;;;;;2288521;60;1263;-85
2022/09/27 08:56:51;600256.00;2.00;1034.66;0.00;0.00;0.62;;;;;17.30;1.00;;;;;;2288576;60;1745;-85
2022/09/27 09:27:42;1725547.00;5.75;3075.17;43308.00;0.14;75.61;;;;;14.90;1.00;;;;;;2516976;55;3591;31
2022/09/27 09:40:17;1265569.00;4.22;2209.23;0.00;0.00;0.62;;;;;15.60;1.00;;;;;;2282788;61;1324;-89
2022/09/27 09:53:52;1731535.00;5.77;3086.86;88797.00;0.30;154.23;;;;;16.00;1.00;;;;;;2277988;61;1976;-88
2022/09/27 10:21:21;2129664.00;7.10;3894.06;39082.00;0.13;68.30;;;;;15.90;1.00;;;;;;2298488;39;3501;-85
2022/09/27 10:26:20;1507638.00;5.03;2657.50;0.00;0.00;0.62;;;;;16.00;1.00;;;;;;2281840;60;1186;-89
2022/09/27 10:46:26;1169490.00;3.90;2035.15;0.00;0.00;0.62;;;;;16.40;1.00;;;;;;2282306;60;1295;-87
2022/09/27 10:51:31;1980682.00;6.60;3584.73;0.00;0.00;0.62;;;;;15.90;1.00;;;;;;2282270;60;1414;-86
2022/09/27 10:53:59;791723.00;2.64;1366.69;0.00;0.00;0.62;;;;;16.30;1.00;;;;;;2286574;39;3459;-86
2022/09/27 10:56:30;671172.00;2.24;1157.28;0.00;0.00;0.62;;;;;16.60;1.00;;;;;;2289032;60;975;-89
2022/09/27 10:58:58;496764.00;1.66;856.25;0.00;0.00;0.62;;;;;16.60;1.00;;;;;;2289024;60;1521;-87
2022/09/27 11:01:39;700698.00;2.34;1208.45;0.00;0.00;0.62;;;;;17.00;1.00;;;;;;2288912;60;1108;-90
2022/09/27 11:04:07;1668623.00;5.56;2964.62;46233.00;0.15;80.67;;;;;16.60;1.00;;;;;;2297072;56;3837;-87
2022/09/27 11:06:37;1179584.00;3.93;2053.35;42388.00;0.14;74.02;;;;;16.80;1.00;;;;;;2284980;60;994;-86
2022/09/27 11:09:18;1348049.00;4.49;2360.31;24328.00;0.08;42.76;;;;;16.80;1.00;;;;;;2284920;60;1583;-86
2022/09/27 11:11:46;1128302.00;3.76;1961.11;42296.00;0.14;73.86;;;;;16.80;1.00;;;;;;2284841;60;1862;-87
2022/09/27 11:17:08;1958553.00;6.53;3539.56;0.00;0.00;0.62;;;;;17.00;1.00;;;;;;2288940;39;3518;-86
2022/09/27 11:20:12;689929.00;2.30;1189.78;0.00;0.00;0.62;;;;;16.70;1.00;;;;;;2289033;60;898;-88
2022/09/27 11:23:00;489967.00;1.63;844.55;0.00;0.00;0.62;;;;;16.70;1.00;;;;;;2287846;60;1709;-87
2022/09/27 11:25:38;865574.00;2.89;1495.74;63657.00;0.21;110.80;;;;;17.00;1.00;;;;;;2289007;60;760;-87
2022/09/27 11:30:47;1031979.00;3.44;1789.19;0.00;0.00;0.62;;;;;16.90;1.00;;;;;;2278648;61;1363;-86
2022/09/27 11:33:49;531436.00;1.77;915.97;0.00;0.00;0.62;;;;;17.40;1.00;;;;;;2276725;60;2010;-87
2022/09/27 11:36:33;799969.00;2.67;1381.07;0.00;0.00;0.62;;;;;17.50;1.00;;;;;;2276745;60;1121;-87
2022/09/27 11:39:11;623894.00;2.08;1075.50;0.00;0.00;0.62;;;;;17.40;1.00;;;;;;2276802;60;906;-86
2022/09/27 11:41:57;696421.00;2.32;1201.03;0.00;0.00;0.62;;;;;17.20;1.00;;;;;;2276766;60;1155;-86
2022/09/27 11:47:05;1259598.00;4.20;2198.35;16834.00;0.06;29.79;;;;;16.20;1.00;;;;;;2278170;61;1399;-88
2022/09/27 11:50:11;731497.00;2.44;1261.90;26861.00;0.09;47.15;;;;;16.40;1.00;;;;;;2276644;61;1622;-89
2022/09/27 11:52:57;1156517.00;3.86;2011.80;8015.00;0.03;14.51;;;;;16.80;1.00;;;;;;2274799;61;1907;-88
2022/09/27 11:55:38;480299.00;1.60;827.91;0.00;0.00;0.62;;;;;16.90;1.00;;;;;;2276685;61;995;-88
2022/09/27 11:58:21;517590.00;1.73;892.11;0.00;0.00;0.62;;;;;16.80;1.00;;;;;;2276740;61;1057;-88
2022/09/27 12:01:03;612685.00;2.04;1056.13;0.00;0.00;0.62;;;;;16.80;1.00;;;;;;2276674;61;1042;-87
2022/09/27 12:03:59;433948.00;1.45;748.17;0.00;0.00;0.62;;;;;16.60;1.00;;;;;;2276666;61;1455;-87
2022/09/27 12:06:40;572001.00;1.91;985.90;0.00;0.00;0.62;;;;;16.30;1.00;;;;;;2288698;39;3573;-88
2022/09/27 12:09:12;530738.00;1.77;914.76;0.00;0.00;0.62;;;;;15.80;1.00;;;;;;2284771;60;1030;-89
2022/09/27 12:11:44;724135.00;2.41;1249.12;0.00;0.00;0.62;;;;;16.20;1.00;;;;;;2284863;60;947;-86
2022/09/27 12:14:20;557087.00;1.86;960.18;0.00;0.00;0.62;;;;;16.10;1.00;;;;;;2284713;60;1923;-89
2022/09/27 12:16:51;720410.00;2.40;1242.65;0.00;0.00;0.62;;;;;16.10;1.00;;;;;;2284833;60;1074;-87
2022/09/27 12:19:23;613625.00;2.05;1057.75;0.00;0.00;0.62;;;;;16.30;1.00;;;;;;2284819;60;1105;-85
2022/09/27 12:21:50;386961.00;1.29;667.39;0.00;0.00;0.62;;;;;16.20;1.00;;;;;;2284832;60;1238;-86
2022/09/27 12:24:22;700923.00;2.34;1208.84;0.00;0.00;0.62;;;;;15.80;1.00;;;;;;2284598;60;1495;-88
2022/09/27 12:26:53;513153.00;1.71;884.47;0.00;0.00;0.62;;;;;15.50;1.00;;;;;;2284763;60;1035;-84
2022/09/27 12:31:57;1488658.00;4.96;2621.80;67001.00;0.22;116.58;;;;;15.40;1.00;;;;;;2278493;61;1387;-88
2022/09/27 12:34:33;1526551.00;5.09;2693.18;67729.00;0.23;117.84;;;;;15.30;1.00;;;;;;2286735;55;3594;-87
2022/09/27 12:37:05;1305711.00;4.35;2282.56;39225.00;0.13;68.55;;;;;15.20;1.00;;;;;;2293760;40;3571;-88
2022/09/27 13:04:46;2108323.00;7.03;3849.17;0.00;0.00;0.62;;;;;16.10;1.00;;;;;;2502840;39;3605;31
2022/09/27 13:29:42;120813808.00;402.71;71435184.00;36544.00;0.12;63.91;;;;;15.00;1.00;;;;;;2298674;55;3648;-88
2022/09/27 13:47:31;1500287.00;5.00;2643.66;0.00;0.00;0.62;;;;;15.40;1.00;;;;;;2302085;39;3491;-87
2022/09/27 13:52:43;1237618.00;4.13;2158.38;0.00;0.00;0.62;;;;;15.10;1.00;;;;;;2282896;61;1368;-89
2022/09/27 13:55:39;609178.00;2.03;1050.07;0.00;0.00;0.62;;;;;15.00;1.00;;;;;;2280857;61;994;-84
2022/09/27 13:58:32;757620.00;2.53;1307.31;69537.00;0.23;120.96;;;;;15.00;1.00;;;;;;2280280;60;1034;-88
2022/09/27 14:01:03;711982.00;2.37;1228.02;70564.00;0.24;122.74;;;;;15.20;1.00;;;;;;2280258;60;1024;-87
2022/09/27 14:03:48;929536.00;3.10;1608.06;72129.00;0.24;125.44;;;;;14.90;1.00;;;;;;2287214;39;3651;-86
2022/09/27 14:06:23;2015746.00;6.72;3656.71;99868.00;0.33;173.34;;;;;14.90;1.00;;;;;;2271150;39;1158844;-89
2022/09/27 14:08:55;998278.00;3.33;1729.42;64912.00;0.22;112.97;;;;;14.50;1.00;;;;;;2287978;55;3750;-88
2022/09/27 14:11:27;1093440.00;3.64;1898.70;65386.00;0.22;113.79;;;;;14.50;1.00;;;;;;2305222;55;3746;-88
2022/09/27 14:18:58;1996466.00;6.65;3617.07;64789.00;0.22;112.75;;;;;14.70;1.00;;;;;;2299513;39;3482;-87
2022/09/27 14:23:54;1524047.00;5.08;2688.45;70408.00;0.23;122.47;;;;;14.90;1.00;;;;;;2278512;61;1420;-88
2022/09/27 14:26:27;808263.00;2.69;1395.54;61331.00;0.20;106.78;;;;;15.20;1.00;;;;;;2276912;61;1628;-88
2022/09/27 14:28:54;548465.00;1.83;945.31;78556.00;0.26;136.54;;;;;15.40;1.00;;;;;;2292649;55;3760;-87
2022/09/27 14:31:23;1163691.00;3.88;2024.71;61201.00;0.20;106.55;;;;;15.40;1.00;;;;;;2284326;60;1294;-85
2022/09/27 14:34:04;572003.00;1.91;985.90;0.00;0.00;0.62;;;;;15.20;1.00;;;;;;2284787;60;1922;-88
2022/09/27 14:39:23;832168.00;2.77;1437.28;0.00;0.00;0.62;;;;;15.70;1.00;;;;;;2289121;60;716;-88
2022/09/27 14:41:51;867784.00;2.89;1499.61;43310.00;0.14;75.61;;;;;15.40;1.00;;;;;;2296360;39;3573;-88
2022/09/27 14:44:20;1098431.00;3.66;1907.62;60662.00;0.20;105.62;;;;;15.50;1.00;;;;;;2285008;60;1391;-88
2022/09/27 14:47:07;1040543.00;3.47;1804.41;97863.00;0.33;169.88;;;;;15.30;1.00;;;;;;2285078;60;1433;-88
2022/09/27 14:49:34;1052651.00;3.51;1825.95;61858.00;0.21;107.69;;;;;15.20;1.00;;;;;;2285044;60;1117;-88
2022/09/27 14:52:01;623338.00;2.08;1074.53;68570.00;0.23;119.29;;;;;15.20;1.00;;;;;;2295954;39;3597;-87
2022/09/27 14:54:31;1023693.00;3.41;1774.48;65882.00;0.22;114.64;;;;;15.20;1.00;;;;;;2288951;60;1918;-89
2022/09/27 14:56:59;700035.00;2.33;1207.30;65215.00;0.22;113.49;;;;;15.30;1.00;;;;;;2288908;60;1175;-85
2022/09/27 14:59:31;804895.00;2.68;1389.66;61184.00;0.20;106.52;;;;;14.90;1.00;;;;;;2289001;60;925;-87
2022/09/27 15:02:00;1105441.00;3.68;1920.16;68336.00;0.23;118.88;;;;;14.70;1.00;;;;;;2295241;55;3731;-85
2022/09/27 15:04:30;120476504.00;401.59;70837968.00;98698.00;0.33;171.32;;;;;14.20;1.00;;;;;;2284880;60;1008;-88
2022/09/27 15:06:58;925990.00;3.09;1601.81;60815.00;0.20;105.89;;;;;14.00;1.00;;;;;;2284932;60;1261;-87
2022/09/27 15:09:26;829773.00;2.77;1433.10;67067.00;0.22;116.69;;;;;13.90;1.00;;;;;;2284980;60;1023;-86
2022/09/27 15:11:59;1012457.00;3.37;1754.55;45340.00;0.15;79.13;;;;;14.00;1.00;;;;;;2284940;60;933;-87
2022/09/27 15:14:28;877882.00;2.93;1517.31;64985.00;0.22;113.09;;;;;14.20;1.00;;;;;;2284880;60;2021;-87
2022/09/27 15:16:59;1156948.00;3.86;2012.57;119545.00;0.40;207.30;;;;;14.20;1.00;;;;;;2284832;60;1544;-87
2022/09/27 15:19:30;121847024.00;406.16;73285392.00;87819.00;0.29;152.54;;;;;14.10;1.00;;;;;;2284825;60;1102;-87
2022/09/27 15:22:31;873843.00;2.91;1510.23;72090.00;0.24;125.37;;;;;14.50;1.00;;;;;;2284833;60;1438;-86
2022/09/27 15:25:06;1443071.00;4.81;2536.45;52085.00;0.17;90.79;;;;;13.90;1.00;;;;;;2284956;60;905;-89
2022/09/27 15:27:35;1137942.00;3.79;1978.41;41426.00;0.14;72.36;;;;;14.20;1.00;;;;;;2284972;60;2145;-88
2022/09/27 15:30:02;1417928.00;4.73;2489.62;91166.00;0.30;158.32;;;;;14.70;1.00;;;;;;2284831;60;2182;-87
2022/09/27 15:32:29;1363023.00;4.54;2387.92;22639.00;0.08;39.84;;;;;15.00;1.00;;;;;;2284749;60;1297;-88
2022/09/27 15:35:05;1309467.00;4.36;2289.44;65157.00;0.22;113.39;;;;;15.40;1.00;;;;;;2284846;60;1992;-88
2022/09/27 15:37:36;1169121.00;3.90;2034.49;0.00;0.00;0.62;;;;;15.00;1.00;;;;;;2284875;60;994;-88
2022/09/27 15:40:45;945206.00;3.15;1635.66;56885.00;0.19;99.09;;;;;14.50;1.00;;;;;;2284783;60;1033;-86
2022/09/27 15:43:22;1065442.00;3.55;1848.73;0.00;0.00;0.62;;;;;14.60;1.00;;;;;;2284756;60;1485;-88
2022/09/27 15:45:51;1697392.00;5.66;3020.36;8824.00;0.03;15.91;;;;;14.80;1.00;;;;;;2284793;60;1434;-88
2022/09/27 15:48:20;975818.00;3.25;1689.69;64139.00;0.21;111.63;;;;;15.00;1.00;;;;;;2284676;60;994;-87
2022/09/27 15:50:47;832010.00;2.77;1437.01;45170.00;0.15;78.83;;;;;14.40;1.00;;;;;;2284614;60;1589;-87
2022/09/27 15:53:41;526875.00;1.76;908.11;0.00;0.00;0.62;;;;;14.10;1.00;;;;;;2284680;60;2149;-88
2022/09/27 15:56:14;1020255.00;3.40;1768.38;181592.00;0.61;314.23;;;;;14.00;1.00;;;;;;2284807;60;1546;-89
2022/09/27 15:58:43;742172.00;2.47;1280.45;69703.00;0.23;121.25;;;;;13.90;1.00;;;;;;2284761;60;1375;-86
2022/09/27 16:01:20;709963.00;2.37;1224.52;68983.00;0.23;120.00;;;;;13.50;1.00;;;;;;2284758;60;1068;-86
2022/09/27 16:03:48;983135.00;3.28;1702.62;66557.00;0.22;115.81;;;;;13.60;1.00;;;;;;2284669;60;1394;-87
2022/09/27 16:06:17;820285.00;2.73;1416.52;73763.00;0.25;128.26;;;;;13.70;1.00;;;;;;2284780;60;1199;-86
2022/09/27 16:08:44;740671.00;2.47;1277.84;76801.00;0.26;133.51;;;;;13.80;1.00;;;;;;2284683;60;1063;-87
2022/09/27 16:11:16;1003234.00;3.34;1738.20;73056.00;0.24;127.04;;;;;14.10;1.00;;;;;;2284676;60;1020;-87
2022/09/27 16:13:44;869933.00;2.90;1503.37;90965.00;0.30;157.97;;;;;14.20;1.00;;;;;;2284661;60;1988;-87
2022/09/27 16:16:17;749763.00;2.50;1293.65;104355.00;0.35;181.09;;;;;13.90;1.00;;;;;;2284718;60;1440;-88
2022/09/27 16:18:44;829108.00;2.76;1431.94;82095.00;0.27;142.66;;;;;14.30;1.00;;;;;;2284711;60;1076;-87
2022/09/27 16:21:12;749823.00;2.50;1293.75;63978.00;0.21;111.35;;;;;14.80;1.00;;;;;;2284701;60;1583;-90
2022/09/27 16:23:39;752150.00;2.51;1297.80;73694.00;0.25;128.14;;;;;15.00;1.00;;;;;;2284708;60;1420;-88
2022/09/27 16:26:07;756264.00;2.52;1304.95;102397.00;0.34;177.71;;;;;14.80;1.00;;;;;;2284723;60;1536;-87
2022/09/27 16:28:37;778818.00;2.60;1344.21;66666.00;0.22;116.00;;;;;14.80;1.00;;;;;;2284733;60;1051;-88
2022/09/27 16:31:08;786876.00;2.62;1358.24;67623.00;0.23;117.65;;;;;15.00;1.00;;;;;;2289387;39;3568;-88
2022/09/27 16:33:35;710682.00;2.37;1225.77;65963.00;0.22;114.78;;;;;15.20;1.00;;;;;;2284650;60;2009;-87
2022/09/27 16:38:33;1354170.00;4.51;2371.59;71966.00;0.24;125.16;;;;;14.40;1.00;;;;;;2277994;61;1372;-88
2022/09/27 16:41:02;843683.00;2.81;1457.42;67368.00;0.22;117.21;;;;;13.90;1.00;;;;;;2276357;61;1183;-88
2022/09/27 16:46:08;1564464.00;5.21;2765.02;68479.00;0.23;119.13;;;;;14.10;1.00;;;;;;2278076;61;1329;-87
2022/09/27 16:48:34;848501.00;2.83;1465.84;62916.00;0.21;109.52;;;;;14.20;1.00;;;;;;2276495;61;1173;-88
2022/09/27 16:53:51;1132330.00;3.77;1968.34;55086.00;0.18;95.98;;;;;14.40;1.00;;;;;;2276413;61;1915;-87
2022/09/27 16:56:19;701899.00;2.34;1210.53;72589.00;0.24;126.23;;;;;14.00;1.00;;;;;;2276465;61;1494;-88
2022/09/27 16:58:48;851711.00;2.84;1471.46;97873.00;0.33;169.90;;;;;14.30;1.00;;;;;;2276203;61;1026;-89
2022/09/27 17:01:16;1277793.00;4.26;2231.52;147622.00;0.49;255.71;;;;;14.30;1.00;;;;;;2276355;61;973;-87
2022/09/27 17:03:44;712699.00;2.38;1229.27;61302.00;0.20;106.73;;;;;14.00;1.00;;;;;;2276394;61;1265;-87
2022/09/27 17:06:11;777674.00;2.59;1342.21;65166.00;0.22;113.41;;;;;14.00;1.00;;;;;;2276394;61;1465;-90
2022/09/27 17:08:38;695689.00;2.32;1199.76;61172.00;0.20;106.50;;;;;14.50;1.00;;;;;;2276379;61;1692;-88
2022/09/27 17:11:06;741815.00;2.47;1279.83;86618.00;0.29;150.47;;;;;14.70;1.00;;;;;;2276508;61;1035;-86
2022/09/27 17:13:33;634987.00;2.12;1094.67;65428.00;0.22;113.86;;;;;14.50;1.00;;;;;;2276346;61;1312;-87
2022/09/27 17:16:02;856560.00;2.86;1479.95;72200.00;0.24;125.56;;;;;14.60;1.00;;;;;;2276200;61;1931;-88
2022/09/27 17:18:30;650513.00;2.17;1121.52;69936.00;0.23;121.65;;;;;14.30;1.00;;;;;;2276359;61;965;-88
2022/09/27 17:21:02;834040.00;2.78;1440.56;97183.00;0.32;168.71;;;;;14.20;1.00;;;;;;2276373;61;970;-88
2022/09/27 17:23:29;791874.00;2.64;1366.96;61211.00;0.20;106.57;;;;;14.40;1.00;;;;;;2276325;61;1313;-89
2022/09/27 17:26:01;748620.00;2.50;1291.66;69860.00;0.23;121.52;;;;;14.80;1.00;;;;;;2276389;61;998;-88
2022/09/27 17:28:28;835321.00;2.78;1442.79;67700.00;0.23;117.79;;;;;14.90;1.00;;;;;;2276397;61;1067;-87
2022/09/27 17:31:03;883038.00;2.94;1526.35;70787.00;0.24;123.12;;;;;15.10;1.00;;;;;;2273503;61;896;-89
2022/09/27 17:36:07;1584914.00;5.28;2803.94;58777.00;0.20;102.36;;;;;15.20;1.00;;;;;;1860791;40;3133;-89
2022/09/27 17:38:35;856393.00;2.85;1479.66;54797.00;0.18;95.48;;;;;14.80;1.00;;;;;;2288425;60;1023;-88
2022/09/27 17:41:03;1260434.00;4.20;2199.88;76013.00;0.25;132.15;;;;;14.80;1.00;;;;;;2288489;60;943;-87
2022/09/27 17:43:32;1171391.00;3.90;2038.58;113356.00;0.38;196.62;;;;;14.30;1.00;;;;;;2288404;60;1402;-87
2022/09/27 17:46:02;1139194.00;3.80;1980.66;84693.00;0.28;147.14;;;;;14.70;1.00;;;;;;2288317;60;1043;-88
2022/09/27 17:51:16;552822.00;1.84;952.82;0.00;0.00;0.62;;;;;14.20;1.00;;;;;;2288451;60;649;-88
2022/09/27 17:53:43;1490116.00;4.97;2624.54;61544.00;0.21;107.15;;;;;14.30;1.00;;;;;;2288253;60;1284;-88
2022/09/27 17:56:11;1063542.00;3.55;1845.35;53546.00;0.18;93.32;;;;;14.30;1.00;;;;;;2288420;60;2012;-88
2022/09/27 17:58:38;1329947.00;4.43;2327.02;69535.00;0.23;120.96;;;;;14.70;1.00;;;;;;2298625;55;3756;-87
2022/09/27 18:03:35;1490874.00;4.97;2625.96;89419.00;0.30;155.30;;;;;14.30;1.00;;;;;;2278141;61;1360;-88
2022/09/27 18:11:06;2441700.00;8.14;4574.25;151870.00;0.51;263.03;;;;;14.70;1.00;;;;;;2325251;40;3468;-87
2022/09/27 18:56:54;894947.00;2.98;1547.25;32256.00;0.11;56.49;;;;;13.40;1.00;;;;;;1882317;40;3206;-90
2022/09/27 18:59:22;992671.00;3.31;1719.50;0.00;0.00;0.62;;;;;14.10;1.00;;;;;;2327779;40;3573;-88
2022/09/27 19:01:50;1054489.00;3.51;1829.22;0.00;0.00;0.62;;;;;14.10;1.00;;;;;;2308676;55;3781;-90
2022/09/27 19:09:25;2393690.00;7.98;4466.53;0.00;0.00;0.62;;;;;14.40;1.00;;;;;;2303140;40;3449;-87
2022/09/27 19:22:06;124966416.00;416.55;79064880.00;0.00;0.00;0.62;;;;;15.20;1.00;;;;;;2278474;60;1397;-89
2022/09/27 19:24:33;1062696.00;3.54;1843.84;0.00;0.00;0.62;;;;;14.40;1.00;;;;;;2293406;39;3793;-90
2022/09/27 19:29:29;2335489.00;7.78;4337.49;0.00;0.00;0.62;;;;;13.50;1.00;;;;;;2277822;61;1259;-87
2022/09/27 19:47:07;1478450.00;4.93;2602.64;0.00;0.00;0.62;;;;;12.90;1.00;;;;;;2278983;61;1022;-88
2022/09/27 19:49:34;668804.00;2.23;1153.18;2927.00;0.01;5.69;;;;;12.60;1.00;;;;;;2277175;61;1115;-88
2022/09/27 19:54:31;120776272.00;402.59;71368560.00;111671.00;0.37;193.71;;;;;12.10;1.00;;;;;;2275269;61;1952;-89
2022/09/27 19:56:58;546478.00;1.82;941.89;64188.00;0.21;111.72;;;;;12.00;1.00;;;;;;2273246;61;1300;-89
2022/09/27 19:59:25;694189.00;2.31;1197.16;0.00;0.00;0.62;;;;;12.00;1.00;;;;;;2273120;61;1716;-90
2022/09/27 20:01:52;788287.00;2.63;1360.70;0.00;0.00;0.62;;;;;12.10;1.00;;;;;;2273086;61;1638;-90
2022/09/27 20:09:36;2442000.00;8.14;4574.92;0.00;0.00;0.62;;;;;12.40;1.00;;;;;;2419401;40;3414;-87
2022/09/27 20:22:21;3172055.00;10.57;6374.33;18553.00;0.06;32.76;;;;;12.70;1.00;;;;;;2323035;39;3647;-88
2022/09/27 20:37:26;3048082.00;10.16;6045.43;123075.00;0.41;213.39;;;;;12.80;1.00;;;;;;2302234;40;3564;-87
2022/09/27 20:45:04;1915807.00;6.39;3452.86;33200.00;0.11;58.12;;;;;13.10;1.00;;;;;;2278887;61;985;-89
2022/09/27 20:50:01;2419513.00;8.07;4524.32;0.00;0.00;0.62;;;;;13.10;1.00;;;;;;2277612;61;1339;-88
2022/09/27 21:00:29;2090582.00;6.97;3812.01;0.00;0.00;0.62;;;;;13.20;1.00;;;;;;2278723;61;1353;-88
2022/09/27 21:02:56;709227.00;2.36;1223.24;25915.00;0.09;45.51;;;;;13.20;1.00;;;;;;2276924;61;1598;-89
2022/09/27 21:22:54;2511866.00;8.37;4733.80;14715.00;0.05;26.12;;;;;13.20;1.00;;;;;;2306531;55;3674;-88
2022/09/27 21:35:25;1944498.00;6.48;3510.98;43855.00;0.15;76.56;;;;;12.70;1.00;;;;;;2278758;61;1951;-87
2022/09/27 21:37:57;1479327.00;4.93;2604.28;0.00;0.00;0.62;;;;;12.60;1.00;;;;;;2307782;40;3673;-87
2022/09/27 21:40:24;747156.00;2.49;1289.11;0.00;0.00;0.62;;;;;12.60;1.00;;;;;;2284336;60;1038;-88
2022/09/27 21:42:51;964346.00;3.21;1669.42;0.00;0.00;0.62;;;;;12.70;1.00;;;;;;2284238;60;1290;-86
2022/09/27 21:45:17;714036.00;2.38;1231.59;0.00;0.00;0.62;;;;;12.70;1.00;;;;;;2284329;60;1509;-86
2022/09/27 21:50:18;1670727.00;5.57;2968.69;0.00;0.00;0.62;;;;;12.90;1.00;;;;;;2277955;61;1418;-87
2022/09/27 21:52:44;1026500.00;3.42;1779.46;0.00;0.00;0.62;;;;;13.10;1.00;;;;;;2275970;60;1550;-89
2022/09/27 22:02:45;1544487.00;5.15;2727.11;0.00;0.00;0.62;;;;;13.20;1.00;;;;;;2278031;61;1399;-87
2022/09/27 22:05:11;882781.00;2.94;1525.90;0.00;0.00;0.62;;;;;13.30;1.00;;;;;;2276254;61;1113;-88
2022/09/27 22:07:38;844307.00;2.81;1458.51;0.00;0.00;0.62;;;;;13.40;1.00;;;;;;2276116;61;908;-87
2022/09/27 22:10:06;999348.00;3.33;1731.32;0.00;0.00;0.62;;;;;13.30;1.00;;;;;;2276013;61;893;-87
2022/09/27 22:12:33;799277.00;2.66;1379.86;0.00;0.00;0.62;;;;;13.10;1.00;;;;;;2276205;61;1378;-89
2022/09/27 22:15:00;982634.00;3.28;1701.74;516.00;0.00;1.51;;;;;13.20;1.00;;;;;;2276030;61;1998;-88
2022/09/27 22:17:27;783158.00;2.61;1351.77;0.00;0.00;0.62;;;;;13.10;1.00;;;;;;2276269;61;977;-90
2022/09/27 22:19:55;770619.00;2.57;1329.93;0.00;0.00;0.62;;;;;13.10;1.00;;;;;;2276263;61;1057;-89
2022/09/27 22:22:22;788845.00;2.63;1361.68;0.00;0.00;0.62;;;;;13.50;1.00;;;;;;2276060;61;1362;-89
2022/09/27 22:24:49;828179.00;2.76;1430.31;0.00;0.00;0.62;;;;;13.40;1.00;;;;;;2276233;61;999;-88
2022/09/27 22:27:16;1071306.00;3.57;1859.18;0.00;0.00;0.62;;;;;13.60;1.00;;;;;;2276112;61;971;-89
2022/09/27 22:29:43;1001453.00;3.34;1735.05;0.00;0.00;0.62;;;;;13.80;1.00;;;;;;2276727;61;1050;-88
2022/09/27 22:32:10;758971.00;2.53;1309.66;0.00;0.00;0.62;;;;;13.60;1.00;;;;;;2282106;39;3692;-88
2022/09/27 22:34:37;654356.00;2.18;1128.17;0.00;0.00;0.62;;;;;13.60;1.00;;;;;;2276910;61;1781;-88
2022/09/27 22:37:05;715877.00;2.39;1234.78;0.00;0.00;0.62;;;;;13.70;1.00;;;;;;2276873;61;1983;-88
2022/09/27 22:39:32;938314.00;3.13;1623.51;0.00;0.00;0.62;;;;;13.50;1.00;;;;;;2276768;61;1746;-88
2022/09/27 22:41:59;733730.00;2.45;1265.78;0.00;0.00;0.62;;;;;13.70;1.00;;;;;;2276759;61;1287;-87
2022/09/27 22:44:26;717989.00;2.39;1238.45;0.00;0.00;0.62;;;;;13.60;1.00;;;;;;2276867;61;1118;-86
2022/09/27 22:46:53;920010.00;3.07;1591.29;0.00;0.00;0.62;;;;;13.60;1.00;;;;;;2276796;61;1032;-89
2022/09/27 22:49:20;951469.00;3.17;1646.70;26457.00;0.09;46.45;;;;;13.70;1.00;;;;;;2276590;61;1090;-88
2022/09/27 22:51:47;947202.00;3.16;1639.18;0.00;0.00;0.62;;;;;14.10;1.00;;;;;;2289813;55;3763;-88
2022/09/27 22:54:15;926646.00;3.09;1602.97;569.00;0.00;1.61;;;;;14.50;1.00;;;;;;2289030;60;1465;-87
2022/09/27 22:59:16;1530893.00;5.10;2701.39;8334.00;0.03;15.06;;;;;15.40;1.00;;;;;;2279016;61;1348;-89
2022/09/27 23:01:43;627707.00;2.09;1082.09;0.00;0.00;0.62;;;;;15.60;1.00;;;;;;2277489;61;1285;-89
2022/09/27 23:04:10;685066.00;2.28;1181.35;0.00;0.00;0.62;;;;;15.70;1.00;;;;;;2286392;55;3787;-88
2022/09/27 23:09:06;2275116.00;7.58;4205.38;0.00;0.00;0.62;;;;;16.10;1.00;;;;;;2278332;61;1404;-88
2022/09/27 23:11:34;1011226.00;3.37;1752.36;0.00;0.00;0.62;;;;;16.20;1.00;;;;;;2276742;61;959;-89
2022/09/27 23:16:33;1798898.00;6.00;3219.24;0.00;0.00;0.62;;;;;16.00;1.00;;;;;;2278228;61;1899;-89
2022/09/27 23:24:00;2212184.00;7.37;4069.50;62619.00;0.21;109.00;;;;;16.10;1.00;;;;;;2278237;61;1418;-88
2022/09/27 23:26:28;1129433.00;3.76;1963.14;58951.00;0.20;102.66;;;;;16.20;1.00;;;;;;2285191;55;3751;-88
2022/09/27 23:28:59;119409032.00;398.03;68969976.00;69371.00;0.23;120.67;;;;;16.20;1.00;;;;;;2284819;60;1090;-89
2022/09/27 23:31:28;987425.00;3.29;1710.21;0.00;0.00;0.62;;;;;16.20;1.00;;;;;;2284855;60;983;-88
2022/09/27 23:33:56;958253.00;3.19;1658.67;31574.00;0.11;55.31;;;;;16.30;1.00;;;;;;2284875;60;1471;-86
2022/09/27 23:36:26;991296.00;3.30;1717.06;0.00;0.00;0.62;;;;;16.30;1.00;;;;;;2284822;60;1907;-88
2022/09/27 23:38:54;857456.00;2.86;1481.52;0.00;0.00;0.62;;;;;16.50;1.00;;;;;;2284760;60;2092;-87
2022/09/27 23:41:22;655792.00;2.19;1130.66;0.00;0.00;0.62;;;;;16.60;1.00;;;;;;2284555;60;1133;-89
2022/09/27 23:48:53;2050634.00;6.84;3728.82;72593.00;0.24;126.24;;;;;16.30;1.00;;;;;;2302260;40;3442;-88
2022/09/27 23:51:20;1731193.00;5.77;3086.19;80234.00;0.27;139.44;;;;;16.20;1.00;;;;;;2288396;60;1147;-88
2022/09/27 23:53:47;1475481.00;4.92;2597.07;53917.00;0.18;93.96;;;;;16.40;1.00;;;;;;2294560;56;3767;-86
2022/09/27 23:58:49;1230690.00;4.10;2145.81;64262.00;0.21;111.84;;;;;16.40;1.00;;;;;;1071826;39;3210;-88
